sensor_id;sensor_type;location;lat;lon;timestamp;pressure;altitude;pressure_sealevel;temperature;humidity
16451;BME280;12243;42.708;23.310;2023-03-25T00:02:25;94761.28;;;10.08;82.44
16451;BME280;12243;42.708;23.310;2023-03-25T00:04:54;94753.63;;;10.16;81.43
16451;BME280;12243;42.708;23.310;2023-03-25T00:07:22;94763.47;;;10.12;81.47
16451;BME280;12243;42.708;23.310;2023-03-25T00:09:50;94761.53;;;10.05;81.41
16451;BME280;12243;42.708;23.310;2023-03-25T00:12:17;94752.31;;;10.00;81.38
16451;BME280;12243;42.708;23.310;2023-03-25T00:14:44;94746.16;;;9.92;81.51
16451;BME280;12243;42.708;23.310;2023-03-25T00:17:19;94740.69;;;9.95;82.23
16451;BME280;12243;42.708;23.310;2023-03-25T00:19:46;94741.09;;;9.90;82.18
16451;BME280;12243;42.708;23.310;2023-03-25T00:22:15;94747.47;;;9.86;82.54
16451;BME280;12243;42.708;23.310;2023-03-25T00:24:43;94742.53;;;9.83;82.18
16451;BME280;12243;42.708;23.310;2023-03-25T00:27:10;94736.75;;;9.70;83.43
16451;BME280;12243;42.708;23.310;2023-03-25T00:29:39;94738.38;;;9.71;83.69
16451;BME280;12243;42.708;23.310;2023-03-25T00:32:06;94735.94;;;9.69;83.63
16451;BME280;12243;42.708;23.310;2023-03-25T00:34:33;94735.63;;;9.63;83.68
16451;BME280;12243;42.708;23.310;2023-03-25T00:37:07;94733.34;;;9.69;83.88
16451;BME280;12243;42.708;23.310;2023-03-25T00:39:34;94740.72;;;9.74;83.23
16451;BME280;12243;42.708;23.310;2023-03-25T00:42:03;94735.78;;;9.71;83.47
16451;BME280;12243;42.708;23.310;2023-03-25T00:44:31;94731.34;;;9.62;83.27
16451;BME280;12243;42.708;23.310;2023-03-25T00:46:58;94734.50;;;9.56;83.71
16451;BME280;12243;42.708;23.310;2023-03-25T00:49:25;94728.34;;;9.57;84.84
16451;BME280;12243;42.708;23.310;2023-03-25T00:51:53;94721.28;;;9.47;85.20
16451;BME280;12243;42.708;23.310;2023-03-25T00:54:20;94718.38;;;9.41;84.96
16451;BME280;12243;42.708;23.310;2023-03-25T00:56:47;94711.78;;;9.37;85.63
16451;BME280;12243;42.708;23.310;2023-03-25T00:59:16;94720.63;;;9.45;85.31
16451;BME280;12243;42.708;23.310;2023-03-25T01:01:43;94720.06;;;9.51;84.52
16451;BME280;12243;42.708;23.310;2023-03-25T01:04:10;94716.09;;;9.47;84.72
16451;BME280;12243;42.708;23.310;2023-03-25T01:06:39;94718.69;;;9.47;84.50
16451;BME280;12243;42.708;23.310;2023-03-25T01:09:09;94714.47;;;9.46;84.78
16451;BME280;12243;42.708;23.310;2023-03-25T01:11:38;94707.31;;;9.39;85.13
16451;BME280;12243;42.708;23.310;2023-03-25T01:14:08;94704.16;;;9.35;85.48
16451;BME280;12243;42.708;23.310;2023-03-25T01:16:38;94709.59;;;9.32;85.63
16451;BME280;12243;42.708;23.310;2023-03-25T01:19:05;94701.84;;;9.42;85.55
16451;BME280;12243;42.708;23.310;2023-03-25T01:21:32;94703.19;;;9.36;85.07
16451;BME280;12243;42.708;23.310;2023-03-25T01:24:01;94696.41;;;9.24;85.58
16451;BME280;12243;42.708;23.310;2023-03-25T01:26:28;94699.63;;;9.16;86.51
16451;BME280;12243;42.708;23.310;2023-03-25T01:28:55;94688.00;;;9.11;86.50
16451;BME280;12243;42.708;23.310;2023-03-25T01:31:22;94683.31;;;9.04;86.42
16451;BME280;12243;42.708;23.310;2023-03-25T01:33:52;94683.31;;;9.04;87.29
16451;BME280;12243;42.708;23.310;2023-03-25T01:36:19;94670.56;;;9.01;87.24
16451;BME280;12243;42.708;23.310;2023-03-25T01:38:49;94676.34;;;9.05;87.37
16451;BME280;12243;42.708;23.310;2023-03-25T01:41:17;94673.88;;;9.03;86.80
16451;BME280;12243;42.708;23.310;2023-03-25T01:44:00;94665.63;;;8.98;87.11
16451;BME280;12243;42.708;23.310;2023-03-25T01:46:27;94669.59;;;9.02;86.95
16451;BME280;12243;42.708;23.310;2023-03-25T01:48:55;94673.97;;;9.02;87.01
16451;BME280;12243;42.708;23.310;2023-03-25T01:51:27;94668.53;;;9.05;87.06
16451;BME280;12243;42.708;23.310;2023-03-25T01:53:55;94676.97;;;8.97;87.49
16451;BME280;12243;42.708;23.310;2023-03-25T01:56:25;94668.72;;;8.92;87.14
16451;BME280;12243;42.708;23.310;2023-03-25T01:58:56;94680.44;;;8.87;87.40
16451;BME280;12243;42.708;23.310;2023-03-25T02:01:24;94677.16;;;8.85;87.68
16451;BME280;12243;42.708;23.310;2023-03-25T02:03:54;94671.28;;;8.82;87.17
16451;BME280;12243;42.708;23.310;2023-03-25T02:06:31;94664.66;;;8.78;87.33
16451;BME280;12243;42.708;23.310;2023-03-25T02:09:02;94667.16;;;8.80;87.52
16451;BME280;12243;42.708;23.310;2023-03-25T02:11:31;94660.44;;;8.77;87.78
16451;BME280;12243;42.708;23.310;2023-03-25T02:14:01;94665.75;;;8.76;88.06
16451;BME280;12243;42.708;23.310;2023-03-25T02:16:35;94665.75;;;8.76;87.95
16451;BME280;12243;42.708;23.310;2023-03-25T02:22:34;94652.06;;;8.74;88.97
16451;BME280;12243;42.708;23.310;2023-03-25T02:28:30;94652.31;;;8.71;88.76
16451;BME280;12243;42.708;23.310;2023-03-25T02:31:16;94655.38;;;8.76;88.96
16451;BME280;12243;42.708;23.310;2023-03-25T02:34:13;94650.22;;;8.65;88.74
16451;BME280;12243;42.708;23.310;2023-03-25T02:37:19;94646.69;;;8.66;89.46
16451;BME280;12243;42.708;23.310;2023-03-25T02:39:55;94651.38;;;8.72;89.09
16451;BME280;12243;42.708;23.310;2023-03-25T02:42:32;94649.97;;;8.68;88.76
16451;BME280;12243;42.708;23.310;2023-03-25T02:45:03;94649.97;;;8.68;89.12
16451;BME280;12243;42.708;23.310;2023-03-25T02:47:35;94644.78;;;8.68;88.78
16451;BME280;12243;42.708;23.310;2023-03-25T02:50:06;94653.41;;;8.68;88.41
16451;BME280;12243;42.708;23.310;2023-03-25T02:52:38;94650.81;;;8.68;88.12
16451;BME280;12243;42.708;23.310;2023-03-25T02:55:10;94648.81;;;8.61;88.85
16451;BME280;12243;42.708;23.310;2023-03-25T02:57:43;94642.72;;;8.50;89.10
16451;BME280;12243;42.708;23.310;2023-03-25T03:00:15;94643.25;;;8.44;90.08
16451;BME280;12243;42.708;23.310;2023-03-25T03:02:46;94640.41;;;8.47;90.01
16451;BME280;12243;42.708;23.310;2023-03-25T03:05:21;94630.72;;;8.49;89.56
16451;BME280;12243;42.708;23.310;2023-03-25T03:07:52;94624.94;;;8.46;89.86
16451;BME280;12243;42.708;23.310;2023-03-25T03:10:25;94630.97;;;8.46;90.22
16451;BME280;12243;42.708;23.310;2023-03-25T03:13:02;94630.97;;;8.46;89.73
16451;BME280;12243;42.708;23.310;2023-03-25T03:15:37;94634.50;;;8.45;89.76
16451;BME280;12243;42.708;23.310;2023-03-25T03:18:14;94643.25;;;8.44;90.37
16451;BME280;12243;42.708;23.310;2023-03-25T03:20:54;94646.09;;;8.41;90.41
16451;BME280;12243;42.708;23.310;2023-03-25T03:23:24;94643.00;;;8.47;90.21
16451;BME280;12243;42.708;23.310;2023-03-25T03:26:02;94646.03;;;8.52;89.77
16451;BME280;12243;42.708;23.310;2023-03-25T03:28:33;94640.75;;;8.43;90.01
16451;BME280;12243;42.708;23.310;2023-03-25T03:31:06;94635.91;;;8.49;90.21
16451;BME280;12243;42.708;23.310;2023-03-25T03:33:41;94637.81;;;8.47;90.06
16451;BME280;12243;42.708;23.310;2023-03-25T03:36:16;94643.50;;;8.41;90.20
16451;BME280;12243;42.708;23.310;2023-03-25T03:38:48;94644.66;;;8.48;90.18
16451;BME280;12243;42.708;23.310;2023-03-25T03:41:19;94643.31;;;8.54;89.67
16451;BME280;12243;42.708;23.310;2023-03-25T03:43:51;94650.47;;;8.41;89.78
16451;BME280;12243;42.708;23.310;2023-03-25T03:46:22;94645.25;;;8.29;90.22
16451;BME280;12243;42.708;23.310;2023-03-25T03:48:53;94647.28;;;8.26;90.76
16451;BME280;12243;42.708;23.310;2023-03-25T03:51:23;94641.16;;;8.27;91.03
16451;BME280;12243;42.708;23.310;2023-03-25T03:53:56;94639.63;;;8.24;91.03
16451;BME280;12243;42.708;23.310;2023-03-25T03:56:29;94641.06;;;8.17;91.46
16451;BME280;12243;42.708;23.310;2023-03-25T03:59:03;94643.78;;;8.16;91.52
16451;BME280;12243;42.708;23.310;2023-03-25T04:01:38;94644.03;;;8.13;91.65
16451;BME280;12243;42.708;23.310;2023-03-25T04:04:12;94651.94;;;8.11;91.53
16451;BME280;12243;42.708;23.310;2023-03-25T04:06:43;94657.34;;;8.08;91.92
16451;BME280;12243;42.708;23.310;2023-03-25T04:09:15;94649.00;;;8.04;92.03
16451;BME280;12243;42.708;23.310;2023-03-25T04:11:51;94648.06;;;8.05;92.48
16451;BME280;12243;42.708;23.310;2023-03-25T04:14:19;94645.00;;;8.00;92.80
16451;BME280;12243;42.708;23.310;2023-03-25T04:16:47;94639.94;;;7.99;93.06
16451;BME280;12243;42.708;23.310;2023-03-25T04:19:14;94648.31;;;8.02;93.24
16451;BME280;12243;42.708;23.310;2023-03-25T04:21:42;94646.16;;;8.07;92.82
16451;BME280;12243;42.708;23.310;2023-03-25T04:24:10;94636.13;;;8.14;92.76
16451;BME280;12243;42.708;23.310;2023-03-25T04:26:41;94638.84;;;8.13;92.33
16451;BME280;12243;42.708;23.310;2023-03-25T04:29:10;94647.56;;;8.11;92.82
16451;BME280;12243;42.708;23.310;2023-03-25T04:31:38;94639.78;;;8.11;92.61
16451;BME280;12243;42.708;23.310;2023-03-25T04:34:11;94646.38;;;8.16;92.22
16451;BME280;12243;42.708;23.310;2023-03-25T04:36:39;94655.25;;;8.13;92.59
16451;BME280;12243;42.708;23.310;2023-03-25T04:39:08;94645.78;;;8.12;92.78
16451;BME280;12243;42.708;23.310;2023-03-25T04:41:36;94649.00;;;8.04;92.75
16451;BME280;12243;42.708;23.310;2023-03-25T04:44:04;94648.06;;;8.05;93.61
16451;BME280;12243;42.708;23.310;2023-03-25T04:46:34;94652.88;;;8.10;93.26
16451;BME280;12243;42.708;23.310;2023-03-25T04:49:01;94650.88;;;8.14;93.97
16451;BME280;12243;42.708;23.310;2023-03-25T04:51:31;94648.47;;;8.22;93.65
16451;BME280;12243;42.708;23.310;2023-03-25T04:53:58;94649.88;;;8.26;93.74
16451;BME280;12243;42.708;23.310;2023-03-25T04:56:25;94650.78;;;8.36;92.94
16451;BME280;12243;42.708;23.310;2023-03-25T04:58:52;94653.88;;;8.41;92.27
16451;BME280;12243;42.708;23.310;2023-03-25T05:01:22;94655.03;;;8.48;92.13
16451;BME280;12243;42.708;23.310;2023-03-25T05:03:58;94665.03;;;8.53;92.00
16451;BME280;12243;42.708;23.310;2023-03-25T05:06:31;94662.28;;;8.66;91.57
16451;BME280;12243;42.708;23.310;2023-03-25T05:08:59;94657.09;;;8.87;91.12
16451;BME280;12243;42.708;23.310;2023-03-25T05:11:29;94664.16;;;9.05;90.13
16451;BME280;12243;42.708;23.310;2023-03-25T05:13:56;94655.78;;;9.23;88.70
16451;BME280;12243;42.708;23.310;2023-03-25T05:16:23;94669.56;;;9.44;87.08
16451;BME280;12243;42.708;23.310;2023-03-25T05:18:49;94658.56;;;9.62;85.93
16451;BME280;12243;42.708;23.310;2023-03-25T05:21:18;94657.66;;;9.82;85.52
16451;BME280;12243;42.708;23.310;2023-03-25T05:23:46;94661.28;;;10.00;84.20
16451;BME280;12243;42.708;23.310;2023-03-25T05:26:13;94654.88;;;10.24;83.63
16451;BME280;12243;42.708;23.310;2023-03-25T05:28:40;94659.72;;;10.38;82.26
16451;BME280;12243;42.708;23.310;2023-03-25T05:31:07;94651.13;;;10.57;80.72
16451;BME280;12243;42.708;23.310;2023-03-25T05:33:34;94652.75;;;10.68;80.46
16451;BME280;12243;42.708;23.310;2023-03-25T05:36:08;94651.78;;;10.88;79.19
16451;BME280;12243;42.708;23.310;2023-03-25T05:38:37;94654.34;;;11.08;77.33
16451;BME280;12243;42.708;23.310;2023-03-25T05:41:06;94655.56;;;11.23;77.04
16451;BME280;12243;42.708;23.310;2023-03-25T05:43:35;94657.28;;;11.42;76.07
16451;BME280;12243;42.708;23.310;2023-03-25T05:46:03;94658.53;;;11.48;74.90
16451;BME280;12243;42.708;23.310;2023-03-25T05:48:30;94661.50;;;11.53;74.82
16451;BME280;12243;42.708;23.310;2023-03-25T05:50:58;94660.25;;;11.57;74.51
16451;BME280;12243;42.708;23.310;2023-03-25T05:53:24;94653.91;;;11.69;74.60
16451;BME280;12243;42.708;23.310;2023-03-25T05:55:53;94656.44;;;11.88;73.73
16451;BME280;12243;42.708;23.310;2023-03-25T05:58:20;94659.94;;;12.07;73.02
16451;BME280;12243;42.708;23.310;2023-03-25T06:00:47;94658.75;;;12.19;71.98
16451;BME280;12243;42.708;23.310;2023-03-25T06:03:13;94663.19;;;12.36;71.97
16451;BME280;12243;42.708;23.310;2023-03-25T06:05:43;94663.66;;;12.50;69.93
16451;BME280;12243;42.708;23.310;2023-03-25T06:08:10;94658.94;;;12.71;69.67
16451;BME280;12243;42.708;23.310;2023-03-25T06:10:37;94657.91;;;12.64;69.78
16451;BME280;12243;42.708;23.310;2023-03-25T06:13:05;94653.41;;;12.74;68.77
16451;BME280;12243;42.708;23.310;2023-03-25T06:15:32;94651.25;;;12.70;69.08
16451;BME280;12243;42.708;23.310;2023-03-25T06:18:03;94651.78;;;12.73;69.25
16451;BME280;12243;42.708;23.310;2023-03-25T06:20:30;94654.00;;;12.86;68.68
16451;BME280;12243;42.708;23.310;2023-03-25T06:22:58;94650.53;;;13.03;67.89
16451;BME280;12243;42.708;23.310;2023-03-25T06:25:24;94656.28;;;13.07;67.32
16451;BME280;12243;42.708;23.310;2023-03-25T06:27:53;94658.22;;;13.23;66.31
16451;BME280;12243;42.708;23.310;2023-03-25T06:30:24;94655.97;;;13.28;65.58
16451;BME280;12243;42.708;23.310;2023-03-25T06:32:51;94659.44;;;13.28;65.83
16451;BME280;12243;42.708;23.310;2023-03-25T06:35:20;94657.13;;;13.25;65.33
16451;BME280;12243;42.708;23.310;2023-03-25T06:37:48;94660.69;;;13.24;65.48
16451;BME280;12243;42.708;23.310;2023-03-25T06:40:26;94664.56;;;13.20;65.51
16451;BME280;12243;42.708;23.310;2023-03-25T06:42:53;94663.31;;;13.06;65.62
16451;BME280;12243;42.708;23.310;2023-03-25T06:45:24;94660.19;;;13.03;66.53
16451;BME280;12243;42.708;23.310;2023-03-25T06:48:21;94659.88;;;13.06;66.63
16451;BME280;12243;42.708;23.310;2023-03-25T06:50:48;94662.25;;;13.17;66.08
16451;BME280;12243;42.708;23.310;2023-03-25T06:53:15;94677.75;;;13.28;65.69
16451;BME280;12243;42.708;23.310;2023-03-25T06:55:42;94671.56;;;13.38;65.54
16451;BME280;12243;42.708;23.310;2023-03-25T06:58:09;94673.56;;;13.44;65.02
16451;BME280;12243;42.708;23.310;2023-03-25T07:00:37;94676.91;;;13.54;64.43
16451;BME280;12243;42.708;23.310;2023-03-25T07:03:04;94679.63;;;13.70;64.74
16451;BME280;12243;42.708;23.310;2023-03-25T07:05:31;94675.13;;;13.89;63.40
16451;BME280;12243;42.708;23.310;2023-03-25T07:07:59;94677.97;;;14.03;63.16
16451;BME280;12243;42.708;23.310;2023-03-25T07:10:26;94670.69;;;14.23;62.89
16451;BME280;12243;42.708;23.310;2023-03-25T07:12:52;94662.53;;;14.43;62.42
16451;BME280;12243;42.708;23.310;2023-03-25T07:15:19;94666.53;;;14.55;62.60
16451;BME280;12243;42.708;23.310;2023-03-25T07:17:48;94661.16;;;14.81;61.50
16451;BME280;12243;42.708;23.310;2023-03-25T07:20:15;94652.81;;;14.86;60.98
16451;BME280;12243;42.708;23.310;2023-03-25T07:22:42;94659.22;;;14.99;60.76
16451;BME280;12243;42.708;23.310;2023-03-25T07:25:09;94667.56;;;15.19;60.28
16451;BME280;12243;42.708;23.310;2023-03-25T07:27:36;94665.41;;;15.39;59.97
16451;BME280;12243;42.708;23.310;2023-03-25T07:30:08;94656.69;;;15.63;59.33
16451;BME280;12243;42.708;23.310;2023-03-25T07:32:35;94671.09;;;15.76;57.82
16451;BME280;12243;42.708;23.310;2023-03-25T07:35:04;94660.25;;;15.79;57.89
16451;BME280;12243;42.708;23.310;2023-03-25T07:37:33;94653.06;;;15.81;58.50
16451;BME280;12243;42.708;23.310;2023-03-25T07:40:00;94653.69;;;15.91;58.46
16451;BME280;12243;42.708;23.310;2023-03-25T07:42:28;94646.16;;;16.19;57.78
16451;BME280;12243;42.708;23.310;2023-03-25T07:45:14;94651.13;;;16.45;56.08
16451;BME280;12243;42.708;23.310;2023-03-25T07:47:43;94640.84;;;16.58;55.56
16451;BME280;12243;42.708;23.310;2023-03-25T07:50:16;94638.78;;;16.77;55.49
16451;BME280;12243;42.708;23.310;2023-03-25T07:52:43;94640.69;;;16.91;55.56
16451;BME280;12243;42.708;23.310;2023-03-25T07:55:10;94639.91;;;17.05;55.34
16451;BME280;12243;42.708;23.310;2023-03-25T07:57:38;94641.75;;;17.20;54.04
16451;BME280;12243;42.708;23.310;2023-03-25T08:00:07;94634.13;;;17.25;54.21
16451;BME280;12243;42.708;23.310;2023-03-25T08:02:43;94629.50;;;17.27;54.07
16451;BME280;12243;42.708;23.310;2023-03-25T08:05:10;94623.91;;;17.30;53.38
16451;BME280;12243;42.708;23.310;2023-03-25T08:07:38;94618.63;;;17.30;53.18
16451;BME280;12243;42.708;23.310;2023-03-25T08:10:06;94629.28;;;17.36;53.99
16451;BME280;12243;42.708;23.310;2023-03-25T08:12:34;94618.75;;;17.51;53.11
16451;BME280;12243;42.708;23.310;2023-03-25T08:15:02;94618.28;;;17.62;52.94
16451;BME280;12243;42.708;23.310;2023-03-25T08:17:29;94615.41;;;17.87;53.05
16451;BME280;12243;42.708;23.310;2023-03-25T08:19:56;94611.84;;;18.09;52.23
16451;BME280;12243;42.708;23.310;2023-03-25T08:22:23;94605.81;;;18.30;50.99
16451;BME280;12243;42.708;23.310;2023-03-25T08:24:51;94607.00;;;18.28;52.04
16451;BME280;12243;42.708;23.310;2023-03-25T08:27:18;94601.03;;;18.41;50.88
16451;BME280;12243;42.708;23.310;2023-03-25T08:29:45;94608.31;;;18.75;49.77
16451;BME280;12243;42.708;23.310;2023-03-25T08:32:22;94613.34;;;18.91;48.92
16451;BME280;12243;42.708;23.310;2023-03-25T08:34:49;94604.78;;;19.11;48.72
16451;BME280;12243;42.708;23.310;2023-03-25T08:37:16;94608.06;;;19.13;48.48
16451;BME280;12243;42.708;23.310;2023-03-25T08:39:43;94599.81;;;19.22;48.61
16451;BME280;12243;42.708;23.310;2023-03-25T08:42:12;94591.03;;;19.43;47.41
16451;BME280;12243;42.708;23.310;2023-03-25T08:44:39;94590.63;;;19.46;47.14
16451;BME280;12243;42.708;23.310;2023-03-25T08:47:07;94589.78;;;19.39;47.64
16451;BME280;12243;42.708;23.310;2023-03-25T08:49:35;94582.59;;;19.61;46.66
16451;BME280;12243;42.708;23.310;2023-03-25T08:52:02;94581.47;;;19.70;46.26
16451;BME280;12243;42.708;23.310;2023-03-25T08:54:33;94573.38;;;19.79;45.45
16451;BME280;12243;42.708;23.310;2023-03-25T08:57:00;94575.38;;;19.77;45.71
16451;BME280;12243;42.708;23.310;2023-03-25T08:59:28;94569.25;;;19.69;46.34
16451;BME280;12243;42.708;23.310;2023-03-25T09:01:55;94571.69;;;19.64;46.85
16451;BME280;12243;42.708;23.310;2023-03-25T09:04:22;94571.16;;;19.82;46.83
16451;BME280;12243;42.708;23.310;2023-03-25T09:06:49;94568.19;;;19.98;47.07
16451;BME280;12243;42.708;23.310;2023-03-25T09:09:16;94561.56;;;20.29;45.89
16451;BME280;12243;42.708;23.310;2023-03-25T09:11:44;94560.25;;;20.60;45.36
16451;BME280;12243;42.708;23.310;2023-03-25T09:14:11;94555.00;;;21.00;44.18
16451;BME280;12243;42.708;23.310;2023-03-25T09:16:40;94555.41;;;20.97;44.22
16451;BME280;12243;42.708;23.310;2023-03-25T09:19:07;94553.34;;;20.99;44.24
16451;BME280;12243;42.708;23.310;2023-03-25T09:21:34;94548.91;;;20.99;43.86
16451;BME280;12243;42.708;23.310;2023-03-25T09:24:01;94549.69;;;20.86;44.48
16451;BME280;12243;42.708;23.310;2023-03-25T09:26:28;94547.88;;;21.00;43.93
16451;BME280;12243;42.708;23.310;2023-03-25T09:28:57;94552.16;;;21.21;43.54
16451;BME280;12243;42.708;23.310;2023-03-25T09:31:25;94549.28;;;21.29;42.99
16451;BME280;12243;42.708;23.310;2023-03-25T09:33:53;94544.38;;;21.33;42.96
16451;BME280;12243;42.708;23.310;2023-03-25T09:36:20;94543.38;;;21.21;42.83
16451;BME280;12243;42.708;23.310;2023-03-25T09:38:47;94544.19;;;21.01;43.27
16451;BME280;12243;42.708;23.310;2023-03-25T09:41:25;94540.75;;;21.07;43.73
16451;BME280;12243;42.708;23.310;2023-03-25T09:44:00;94543.16;;;21.22;43.19
16451;BME280;12243;42.708;23.310;2023-03-25T09:46:29;94534.56;;;21.67;42.86
16451;BME280;12243;42.708;23.310;2023-03-25T09:48:58;94522.97;;;22.19;41.83
16451;BME280;12243;42.708;23.310;2023-03-25T09:51:28;94521.88;;;22.65;40.16
16451;BME280;12243;42.708;23.310;2023-03-25T09:54:01;94522.03;;;23.02;39.32
16451;BME280;12243;42.708;23.310;2023-03-25T09:56:33;94515.25;;;23.06;37.93
16451;BME280;12243;42.708;23.310;2023-03-25T09:59:03;94513.78;;;23.10;37.55
16451;BME280;12243;42.708;23.310;2023-03-25T10:01:37;94506.25;;;23.07;36.33
16451;BME280;12243;42.708;23.310;2023-03-25T10:04:27;94512.16;;;23.09;35.89
16451;BME280;12243;42.708;23.310;2023-03-25T10:07:07;94507.97;;;23.20;34.54
16451;BME280;12243;42.708;23.310;2023-03-25T10:09:43;94504.53;;;22.94;34.85
16451;BME280;12243;42.708;23.310;2023-03-25T10:12:30;94500.63;;;22.65;35.14
16451;BME280;12243;42.708;23.310;2023-03-25T10:15:09;94493.41;;;22.47;35.11
16451;BME280;12243;42.708;23.310;2023-03-25T10:17:47;94500.81;;;22.39;35.28
16451;BME280;12243;42.708;23.310;2023-03-25T10:20:34;94489.66;;;22.55;34.92
16451;BME280;12243;42.708;23.310;2023-03-25T10:23:09;94470.25;;;22.29;33.16
16451;BME280;12243;42.708;23.310;2023-03-25T10:25:43;94468.91;;;22.45;34.26
16451;BME280;12243;42.708;23.310;2023-03-25T10:28:16;94466.97;;;22.59;34.46
16451;BME280;12243;42.708;23.310;2023-03-25T10:30:48;94468.13;;;22.70;33.93
16451;BME280;12243;42.708;23.310;2023-03-25T10:33:24;94476.13;;;22.95;34.24
16451;BME280;12243;42.708;23.310;2023-03-25T10:35:57;94462.06;;;22.88;33.93
16451;BME280;12243;42.708;23.310;2023-03-25T10:38:25;94459.50;;;22.49;34.40
16451;BME280;12243;42.708;23.310;2023-03-25T10:41:02;94455.16;;;22.30;35.54
16451;BME280;12243;42.708;23.310;2023-03-25T10:43:33;94454.81;;;22.20;34.64
16451;BME280;12243;42.708;23.310;2023-03-25T10:46:05;94454.88;;;22.00;35.10
16451;BME280;12243;42.708;23.310;2023-03-25T10:48:38;94448.72;;;22.06;35.52
16451;BME280;12243;42.708;23.310;2023-03-25T10:51:09;94448.81;;;22.31;35.54
16451;BME280;12243;42.708;23.310;2023-03-25T10:53:36;94445.69;;;22.41;35.20
16451;BME280;12243;42.708;23.310;2023-03-25T10:56:08;94435.41;;;22.51;34.94
16451;BME280;12243;42.708;23.310;2023-03-25T10:58:38;94434.28;;;22.83;34.80
16451;BME280;12243;42.708;23.310;2023-03-25T11:01:10;94421.41;;;23.12;34.83
16451;BME280;12243;42.708;23.310;2023-03-25T11:03:40;94423.75;;;23.39;34.93
16451;BME280;12243;42.708;23.310;2023-03-25T11:06:19;94421.78;;;23.16;34.95
16451;BME280;12243;42.708;23.310;2023-03-25T11:09:09;94418.09;;;23.17;35.56
16451;BME280;12243;42.708;23.310;2023-03-25T11:11:38;94416.97;;;23.24;35.30
16451;BME280;12243;42.708;23.310;2023-03-25T11:14:06;94401.25;;;23.41;34.91
16451;BME280;12243;42.708;23.310;2023-03-25T11:16:35;94405.06;;;23.82;34.97
16451;BME280;12243;42.708;23.310;2023-03-25T11:19:17;94396.53;;;23.92;34.43
16451;BME280;12243;42.708;23.310;2023-03-25T11:21:52;94391.97;;;23.99;34.22
16451;BME280;12243;42.708;23.310;2023-03-25T11:24:22;94390.13;;;24.11;33.98
16451;BME280;12243;42.708;23.310;2023-03-25T11:26:53;94388.34;;;24.35;33.79
16451;BME280;12243;42.708;23.310;2023-03-25T11:29:23;94385.53;;;24.30;32.44
16451;BME280;12243;42.708;23.310;2023-03-25T11:31:57;94385.50;;;24.07;32.93
16451;BME280;12243;42.708;23.310;2023-03-25T11:34:24;94381.56;;;24.09;32.98
16451;BME280;12243;42.708;23.310;2023-03-25T11:36:58;94388.78;;;24.20;32.24
16451;BME280;12243;42.708;23.310;2023-03-25T11:39:30;94373.34;;;23.99;32.23
16451;BME280;12243;42.708;23.310;2023-03-25T11:41:58;94371.63;;;23.74;32.63
16451;BME280;12243;42.708;23.310;2023-03-25T11:44:28;94363.19;;;23.59;33.32
16451;BME280;12243;42.708;23.310;2023-03-25T11:46:57;94363.66;;;23.56;32.59
16451;BME280;12243;42.708;23.310;2023-03-25T11:49:25;94359.69;;;23.47;33.26
16451;BME280;12243;42.708;23.310;2023-03-25T11:51:59;94358.06;;;23.46;33.45
16451;BME280;12243;42.708;23.310;2023-03-25T11:54:28;94346.19;;;23.60;32.99
16451;BME280;12243;42.708;23.310;2023-03-25T11:56:55;94342.06;;;23.83;33.13
16451;BME280;12243;42.708;23.310;2023-03-25T11:59:24;94348.50;;;24.17;33.06
16451;BME280;12243;42.708;23.310;2023-03-25T12:01:59;94348.16;;;24.13;32.38
16451;BME280;12243;42.708;23.310;2023-03-25T12:04:27;94342.13;;;24.06;32.66
16451;BME280;12243;42.708;23.310;2023-03-25T12:06:59;94343.22;;;23.87;32.90
16451;BME280;12243;42.708;23.310;2023-03-25T12:09:28;94338.97;;;23.67;33.28
16451;BME280;12243;42.708;23.310;2023-03-25T12:12:24;94337.50;;;23.23;33.53
16451;BME280;12243;42.708;23.310;2023-03-25T12:15:01;94331.59;;;22.59;33.94
16451;BME280;12243;42.708;23.310;2023-03-25T12:17:37;94337.28;;;22.19;34.88
16451;BME280;12243;42.708;23.310;2023-03-25T12:20:16;94343.00;;;21.84;35.69
16451;BME280;12243;42.708;23.310;2023-03-25T12:22:59;94331.44;;;21.72;35.73
16451;BME280;12243;42.708;23.310;2023-03-25T12:25:35;94341.78;;;21.49;35.59
16451;BME280;12243;42.708;23.310;2023-03-25T12:28:23;94341.78;;;21.49;35.91
16451;BME280;12243;42.708;23.310;2023-03-25T12:31:00;94333.16;;;21.60;36.02
16451;BME280;12243;42.708;23.310;2023-03-25T12:33:39;94338.41;;;21.73;35.90
16451;BME280;12243;42.708;23.310;2023-03-25T12:36:21;94336.50;;;21.80;35.23
16451;BME280;12243;42.708;23.310;2023-03-25T12:39:03;94334.63;;;21.87;35.22
16451;BME280;12243;42.708;23.310;2023-03-25T12:41:36;94336.38;;;21.69;35.44
16451;BME280;12243;42.708;23.310;2023-03-25T12:44:09;94334.72;;;21.74;35.69
16451;BME280;12243;42.708;23.310;2023-03-25T12:47:07;94327.88;;;21.92;35.55
16451;BME280;12243;42.708;23.310;2023-03-25T12:49:43;94326.06;;;21.85;35.38
16451;BME280;12243;42.708;23.310;2023-03-25T12:52:19;94337.44;;;21.93;35.26
16451;BME280;12243;42.708;23.310;2023-03-25T12:55:04;94330.97;;;21.82;35.15
16451;BME280;12243;42.708;23.310;2023-03-25T12:57:46;94328.63;;;21.67;35.54
16451;BME280;12243;42.708;23.310;2023-03-25T13:00:39;94325.28;;;21.78;35.17
16451;BME280;12243;42.708;23.310;2023-03-25T13:03:26;94327.50;;;21.50;35.49
16451;BME280;12243;42.708;23.310;2023-03-25T13:05:59;94324.59;;;21.58;35.83
16451;BME280;12243;42.708;23.310;2023-03-25T13:08:34;94322.59;;;21.53;36.01
16451;BME280;12243;42.708;23.310;2023-03-25T13:11:06;94330.78;;;21.52;36.37
16451;BME280;12243;42.708;23.310;2023-03-25T13:13:35;94325.94;;;21.42;36.22
16451;BME280;12243;42.708;23.310;2023-03-25T13:16:06;94330.63;;;21.33;36.29
16451;BME280;12243;42.708;23.310;2023-03-25T13:18:39;94327.25;;;21.13;37.03
16451;BME280;12243;42.708;23.310;2023-03-25T13:21:10;94326.44;;;21.06;37.55